createdAt,value
2023-04-02T00:00:17.126Z,99562.09
2023-04-02T00:02:55.398Z,99571.78
2023-04-02T00:05:54.693Z,99573.13
2023-04-02T00:08:29.472Z,99578.25
2023-04-02T00:10:59.427Z,99589.88
2023-04-02T00:13:35.475Z,99584.31
2023-04-02T00:16:05.007Z,99592.66
2023-04-02T00:18:35.115Z,99601.66
2023-04-02T00:21:11.489Z,99600.97
2023-04-02T00:23:41.383Z,99608.28
2023-04-02T00:26:23.099Z,99614.75
2023-04-02T00:28:52.892Z,99624.31
2023-04-02T00:31:21.631Z,99636.94
2023-04-02T00:33:49.889Z,99647.13
2023-04-02T00:36:20.556Z,99652.66
2023-04-02T00:38:48.955Z,99661.06
2023-04-02T00:41:22.292Z,99672.31
2023-04-02T00:43:53.791Z,99676.59
2023-04-02T00:46:25.252Z,99686.19
2023-04-02T00:48:58.740Z,99693.06
2023-04-02T00:51:32.039Z,99699.06
2023-04-02T00:54:04.075Z,99707.25
2023-04-02T00:56:37.728Z,99714.94
2023-04-02T00:59:17.393Z,99717.19
2023-04-02T01:01:45.910Z,99720.59
2023-04-02T01:04:27.554Z,99726.03
2023-04-02T01:06:55.762Z,99738.00
2023-04-02T01:09:37.474Z,99716.91
2023-04-02T01:12:25.908Z,99738.09
2023-04-02T01:15:04.956Z,99752.84
2023-04-02T01:17:49.857Z,99754.28
2023-04-02T01:21:03.338Z,99756.75
2023-04-02T01:23:39.827Z,99753.69
2023-04-02T01:26:16.852Z,99787.13
2023-04-02T01:28:58.007Z,99800.41
2023-04-02T01:31:27.613Z,99793.63
2023-04-02T01:33:56.300Z,99804.06
2023-04-02T01:36:30.860Z,99818.97
2023-04-02T01:39:05.184Z,99827.38
2023-04-02T01:41:39.316Z,99823.63
2023-04-02T01:44:12.086Z,99824.63
2023-04-02T01:46:44.795Z,99842.75
2023-04-02T01:49:17.070Z,99845.34
2023-04-02T01:51:46.954Z,99853.63
2023-04-02T01:54:18.053Z,99873.88
2023-04-02T01:56:48.047Z,99873.03
2023-04-02T01:59:20.135Z,99883.44
2023-04-02T02:01:53.408Z,99882.94
2023-04-02T02:04:21.568Z,99895.25
2023-04-02T02:06:49.697Z,99888.94
2023-04-02T02:09:23.967Z,99909.66
2023-04-02T02:11:52.533Z,99904.31
2023-04-02T02:14:23.656Z,99912.75
2023-04-02T02:16:53.406Z,99924.13
2023-04-02T02:19:27.740Z,99938.22
2023-04-02T02:21:58.215Z,99904.03
2023-04-02T02:24:30.913Z,99955.06
2023-04-02T02:27:07.547Z,99967.38
2023-04-02T02:29:39.454Z,99970.63
2023-04-02T02:32:10.516Z,99978.06
2023-04-02T02:34:41.599Z,99973.72
2023-04-02T02:37:15.554Z,99980.66
2023-04-02T02:39:45.663Z,99992.03
2023-04-02T02:42:19.818Z,100011.91
2023-04-02T02:44:51.494Z,100024.53
2023-04-02T02:47:23.322Z,100028.25
2023-04-02T02:49:54.967Z,100021.97
2023-04-02T02:52:26.879Z,100043.94
2023-04-02T02:54:58.984Z,100041.38
2023-04-02T02:57:30.924Z,100044.91
2023-04-02T03:00:04.437Z,100059.31
2023-04-02T03:02:37.334Z,100060.09
2023-04-02T03:05:07.498Z,100067.72
2023-04-02T03:07:37.377Z,100073.22
2023-04-02T03:10:13.776Z,100082.13
2023-04-02T03:12:48.159Z,100091.03
2023-04-02T03:15:23.556Z,100100.53
2023-04-02T03:17:56.872Z,100112.50
2023-04-02T03:20:31.426Z,100119.81
2023-04-02T03:23:05.049Z,100142.09
2023-04-02T03:25:41.404Z,100143.06
2023-04-02T03:28:15.015Z,100152.75
2023-04-02T03:30:49.217Z,100168.09
2023-04-02T03:33:23.077Z,100172.81
2023-04-02T03:35:59.036Z,100178.31
2023-04-02T03:38:29.572Z,100188.50
2023-04-02T03:41:06.208Z,100195.13
2023-04-02T03:43:38.343Z,100198.53
2023-04-02T03:46:18.831Z,100207.41
2023-04-02T03:48:50.539Z,100220.34
2023-04-02T03:51:24.948Z,100231.66
2023-04-02T03:53:52.641Z,100241.22
2023-04-02T03:56:28.505Z,100251.81
2023-04-02T03:59:06.378Z,100269.47
2023-04-02T04:01:42.806Z,100283.41
2023-04-02T04:04:17.349Z,100284.22
2023-04-02T04:06:47.534Z,100297.97
2023-04-02T04:09:21.885Z,100312.31
2023-04-02T04:11:52.730Z,100322.63
2023-04-02T04:14:22.643Z,100312.97
2023-04-02T04:16:58.205Z,100327.91
2023-04-02T04:19:32.588Z,100342.31
2023-04-02T04:22:11.040Z,100343.00
2023-04-02T04:24:39.836Z,100362.91
2023-04-02T04:27:13.473Z,100363.25
2023-04-02T04:29:50.130Z,100372.69
2023-04-02T04:32:27.626Z,100384.78
2023-04-02T04:35:01.112Z,100383.25
2023-04-02T04:37:35.208Z,100400.44
2023-04-02T04:40:11.304Z,100402.75
2023-04-02T04:42:43.066Z,100396.69
2023-04-02T04:45:24.694Z,100431.78
2023-04-02T04:47:58.672Z,100440.84
2023-04-02T04:50:34.864Z,100451.22
2023-04-02T04:53:07.416Z,100455.53
2023-04-02T04:55:40.381Z,100420.91
2023-04-02T04:58:18.149Z,100485.31
2023-04-02T05:01:04.758Z,100496.81
2023-04-02T05:03:39.929Z,100515.47
2023-04-02T05:06:16.833Z,100538.31
2023-04-02T05:08:48.927Z,100554.69
2023-04-02T05:11:24.699Z,100571.00
2023-04-02T05:13:57.705Z,100579.03
2023-04-02T05:16:30.956Z,100592.25
2023-04-02T05:19:07.715Z,100602.28
2023-04-02T05:21:41.822Z,100605.16
2023-04-02T05:24:38.107Z,100620.66
2023-04-02T05:27:16.673Z,100629.03
2023-04-02T05:29:50.835Z,100634.06
2023-04-02T05:32:24.233Z,100639.53
2023-04-02T05:34:57.403Z,100646.16
2023-04-02T05:37:29.945Z,100663.38
2023-04-02T05:40:01.361Z,100674.50
2023-04-02T05:42:32.780Z,100681.56
2023-04-02T05:45:09.765Z,100684.00
2023-04-02T05:47:42.355Z,100684.00
2023-04-02T05:50:22.760Z,100698.09
2023-04-02T05:52:55.376Z,100718.22
2023-04-02T05:55:34.691Z,100715.03
2023-04-02T05:58:33.978Z,100709.78
2023-04-02T06:01:07.779Z,100720.00
2023-04-02T06:03:46.142Z,100728.53
2023-04-02T06:06:22.282Z,100738.03
2023-04-02T06:08:56.386Z,100760.66
2023-04-02T06:11:29.673Z,100753.91
2023-04-02T06:13:57.520Z,100781.06
2023-04-02T06:16:30.322Z,100780.50
2023-04-02T06:18:58.986Z,100799.78
2023-04-02T06:21:28.457Z,100808.06
2023-04-02T06:23:59.995Z,100809.59
2023-04-02T06:26:33.023Z,100819.53
2023-04-02T06:29:07.053Z,100820.63
2023-04-02T06:31:39.769Z,100830.66
2023-04-02T06:34:14.967Z,100844.25
2023-04-02T06:36:45.750Z,100845.84
2023-04-02T06:39:19.606Z,100863.94
2023-04-02T06:41:47.707Z,100857.88
2023-04-02T06:44:19.597Z,100874.56
2023-04-02T06:46:52.207Z,100878.53
2023-04-02T06:49:25.079Z,100885.69
2023-04-02T06:51:56.328Z,100889.34
2023-04-02T06:54:24.006Z,100900.00
2023-04-02T06:56:53.638Z,100895.50
2023-04-02T06:59:22.042Z,100920.06
2023-04-02T07:01:53.351Z,100907.47
2023-04-02T07:04:22.440Z,100910.56
2023-04-02T07:06:51.038Z,100913.00
2023-04-02T07:09:20.379Z,100917.63
2023-04-02T07:11:48.112Z,100906.03
2023-04-02T07:14:16.019Z,100901.88
2023-04-02T07:16:45.436Z,100927.63
2023-04-02T07:19:19.161Z,100953.03
2023-04-02T07:21:47.113Z,100944.78
2023-04-02T07:24:14.867Z,100967.56
2023-04-02T07:26:43.983Z,100966.78
2023-04-02T07:29:16.205Z,100964.97
2023-04-02T07:31:44.613Z,100978.50
2023-04-02T07:34:12.531Z,100986.44
2023-04-02T07:36:40.478Z,100989.69
2023-04-02T07:39:08.274Z,101011.22
2023-04-02T07:41:56.654Z,101019.78
2023-04-02T07:44:24.441Z,101030.13
2023-04-02T07:46:52.275Z,101044.47
2023-04-02T07:49:20.364Z,101044.91
2023-04-02T07:51:48.083Z,101052.72
2023-04-02T07:54:15.899Z,101051.63
2023-04-02T07:56:44.392Z,101055.13
2023-04-02T07:59:13.513Z,101065.56
2023-04-02T08:01:43.013Z,101088.97
2023-04-02T08:04:18.271Z,101098.31
2023-04-02T08:06:46.204Z,101092.00
2023-04-02T08:09:14.321Z,101111.22
2023-04-02T08:11:42.311Z,101119.44
2023-04-02T08:14:10.923Z,101139.50
2023-04-02T08:16:48.747Z,101150.13
2023-04-02T08:19:16.642Z,101158.88
2023-04-02T08:21:45.161Z,101157.56
2023-04-02T08:24:13.138Z,101174.44
2023-04-02T08:26:41.488Z,101164.81
2023-04-02T08:29:10.126Z,101188.06
2023-04-02T08:31:38.388Z,101209.09
2023-04-02T08:34:07.842Z,101213.25
2023-04-02T08:36:38.116Z,101229.97
2023-04-02T08:39:06.838Z,101231.31
2023-04-02T08:41:39.090Z,101261.84
2023-04-02T08:44:19.602Z,101253.94
2023-04-02T08:46:50.588Z,101242.97
2023-04-02T08:49:27.380Z,101256.13
2023-04-02T08:51:55.388Z,101266.13
2023-04-02T08:54:28.046Z,101291.34
2023-04-02T08:57:00.575Z,101302.47
2023-04-02T08:59:33.764Z,101328.28
2023-04-02T09:02:16.455Z,101370.66
2023-04-02T09:04:46.043Z,101368.41
2023-04-02T09:07:16.458Z,101385.84
2023-04-02T09:09:46.340Z,101367.53
2023-04-02T09:12:19.522Z,101406.63
2023-04-02T09:15:00.327Z,101454.50
2023-04-02T09:17:31.180Z,101495.31
2023-04-02T09:20:17.936Z,101548.31
2023-04-02T09:22:48.408Z,101635.75
2023-04-02T09:25:22.877Z,101596.00
2023-04-02T09:27:53.677Z,101651.53
2023-04-02T09:30:31.789Z,101787.53
2023-04-02T09:33:02.434Z,101904.66
2023-04-02T09:35:33.399Z,101898.28
2023-04-02T09:38:21.948Z,102060.22
2023-04-02T09:40:51.967Z,102090.59
2023-04-02T09:43:21.981Z,102062.59
2023-04-02T09:46:01.384Z,102001.91
2023-04-02T09:48:32.687Z,102001.06
2023-04-02T09:51:14.545Z,102074.00
2023-04-02T09:53:43.746Z,102060.69
2023-04-02T09:56:17.735Z,102107.84
2023-04-02T09:58:47.200Z,102084.56
2023-04-02T10:01:29.426Z,102040.97
2023-04-02T10:03:59.175Z,101991.94
2023-04-02T10:06:30.332Z,102051.19
2023-04-02T10:08:58.417Z,102067.22
2023-04-02T10:11:36.578Z,102062.69
2023-04-02T10:14:19.057Z,102082.09
2023-04-02T10:16:51.791Z,102069.44
2023-04-02T10:19:27.650Z,102052.94
2023-04-02T10:21:58.925Z,102044.63
2023-04-02T10:24:29.035Z,102060.88
2023-04-02T10:27:10.485Z,102047.41
2023-04-02T10:29:53.598Z,102069.69
2023-04-02T10:32:24.840Z,102082.25
2023-04-02T10:34:58.614Z,102041.81
2023-04-02T10:37:56.223Z,102017.22
2023-04-02T10:40:29.618Z,102100.03
2023-04-02T10:43:38.087Z,102185.69
2023-04-02T10:46:12.822Z,102164.16
2023-04-02T10:48:47.924Z,102167.28
2023-04-02T10:51:30.353Z,102163.03
2023-04-02T10:54:07.310Z,102179.25
2023-04-02T10:56:49.908Z,102223.66
2023-04-02T10:59:22.981Z,102213.22
2023-04-02T11:01:53.843Z,102196.34
2023-04-02T11:04:28.448Z,102246.81
2023-04-02T11:07:11.575Z,102240.72
2023-04-02T11:09:46.307Z,102237.13
2023-04-02T11:12:23.102Z,102276.78
2023-04-02T11:14:53.053Z,102275.59
2023-04-02T11:17:21.911Z,102279.94
2023-04-02T11:19:49.678Z,102269.28
2023-04-02T11:22:19.209Z,102282.16
2023-04-02T11:24:49.847Z,102287.06
2023-04-02T11:27:23.913Z,102313.84
2023-04-02T11:29:56.702Z,102321.00
2023-04-02T11:32:36.111Z,102330.59
2023-04-02T11:35:40.636Z,102258.75
2023-04-02T11:38:41.960Z,102342.91
2023-04-02T11:41:09.838Z,102354.63
2023-04-02T11:44:01.630Z,102304.13
2023-04-02T11:46:46.533Z,102309.69
2023-04-02T11:49:41.573Z,102357.31
2023-04-02T11:52:25.540Z,102348.41
2023-04-02T11:55:24.238Z,102355.72
2023-04-02T11:58:26.509Z,102383.88
2023-04-02T12:01:30.001Z,102382.72
2023-04-02T12:04:22.574Z,102414.28
2023-04-02T12:07:01.852Z,102405.59
2023-04-02T12:09:31.930Z,102438.47
2023-04-02T12:12:03.007Z,102428.22
2023-04-02T12:14:42.282Z,102427.75
2023-04-02T12:17:21.395Z,102424.78
2023-04-02T12:19:51.527Z,102425.09
2023-04-02T12:22:23.187Z,102419.56
2023-04-02T12:24:53.074Z,102437.31
2023-04-02T12:27:23.543Z,102428.19
2023-04-02T12:29:52.217Z,102439.03
2023-04-02T12:32:29.820Z,102438.63
2023-04-02T12:34:59.323Z,102443.19
2023-04-02T12:37:29.193Z,102447.16
2023-04-02T12:40:00.036Z,102448.06
2023-04-02T12:42:32.982Z,102444.13
2023-04-02T12:45:01.368Z,102450.72
2023-04-02T12:47:30.909Z,102437.03
2023-04-02T12:50:00.705Z,102459.06
2023-04-02T12:52:30.507Z,102447.47
2023-04-02T12:55:00.840Z,102454.69
2023-04-02T12:57:40.697Z,102448.09
2023-04-02T13:00:31.711Z,102458.69
2023-04-02T13:03:20.234Z,102453.84
2023-04-02T13:05:52.133Z,102465.56
2023-04-02T13:08:23.669Z,102477.38
2023-04-02T13:10:56.022Z,102474.97
2023-04-02T13:13:30.650Z,102460.31
2023-04-02T13:16:25.175Z,102462.31
2023-04-02T13:19:11.369Z,102467.41
2023-04-02T13:21:39.140Z,102460.28
2023-04-02T13:24:18.000Z,102468.38
2023-04-02T13:26:47.822Z,102468.75
2023-04-02T13:29:21.797Z,102450.50
2023-04-02T13:31:49.948Z,102458.28
2023-04-02T13:34:19.477Z,102463.19
2023-04-02T13:36:47.869Z,102470.75
2023-04-02T13:39:15.651Z,102469.09
2023-04-02T13:41:45.351Z,102478.91
2023-04-02T13:44:21.008Z,102479.25
2023-04-02T13:46:48.742Z,102477.22
2023-04-02T13:49:16.707Z,102463.50
2023-04-02T13:51:47.935Z,102473.38
2023-04-02T13:54:21.350Z,102495.81
2023-04-02T13:56:49.181Z,102500.94
2023-04-02T13:59:17.332Z,102492.53
2023-04-02T14:01:47.485Z,102495.31
2023-04-02T14:04:21.127Z,102496.25
2023-04-02T14:07:15.781Z,102490.75
2023-04-02T14:09:56.433Z,102489.94
2023-04-02T14:12:36.397Z,102495.41
2023-04-02T14:15:27.528Z,102483.34
2023-04-02T14:18:10.572Z,102483.69
2023-04-02T14:20:47.684Z,102504.75
2023-04-02T14:23:27.207Z,102504.56
2023-04-02T14:26:02.958Z,102504.34
2023-04-02T14:28:40.396Z,102497.88
2023-04-02T14:31:18.150Z,102502.06
2023-04-02T14:33:55.045Z,102507.44
2023-04-02T14:36:28.732Z,102512.13
2023-04-02T14:39:07.820Z,102515.22
2023-04-02T14:41:42.570Z,102517.81
2023-04-02T14:44:12.763Z,102516.25
2023-04-02T14:46:41.442Z,102515.63
2023-04-02T14:49:22.058Z,102536.94
2023-04-02T14:51:52.840Z,102533.19
2023-04-02T14:54:31.190Z,102491.53
2023-04-02T14:57:05.392Z,102516.53
2023-04-02T14:59:37.939Z,102525.88
2023-04-02T15:02:10.516Z,102522.50
2023-04-02T15:04:43.542Z,102535.97
2023-04-02T15:07:19.355Z,102515.25
2023-04-02T15:09:55.812Z,102543.59
2023-04-02T15:12:28.414Z,102514.28
2023-04-02T15:15:02.940Z,102520.94
2023-04-02T15:17:31.043Z,102524.44
2023-04-02T15:20:10.364Z,102541.97
2023-04-02T15:22:44.950Z,102519.88
2023-04-02T15:25:26.573Z,102530.41
2023-04-02T15:28:08.490Z,102531.28
2023-04-02T15:30:39.251Z,102542.81
2023-04-02T15:33:39.040Z,102529.81
2023-04-02T15:36:43.433Z,102545.19
2023-04-02T15:39:38.224Z,102486.56
2023-04-02T15:42:17.223Z,102526.91
2023-04-02T15:44:56.052Z,102522.22
2023-04-02T15:47:36.881Z,102547.16
2023-04-02T15:50:20.446Z,102545.25
2023-04-02T15:52:55.826Z,102531.78
2023-04-02T15:55:27.061Z,102517.09
2023-04-02T15:58:21.881Z,102478.22
2023-04-02T16:00:57.917Z,102506.66
2023-04-02T16:03:50.951Z,102506.00
2023-04-02T16:06:27.964Z,102492.00
2023-04-02T16:09:06.884Z,102504.47
2023-04-02T16:11:34.931Z,102518.88
2023-04-02T16:14:17.287Z,102484.31
2023-04-02T16:16:48.952Z,102514.19
2023-04-02T16:19:24.127Z,102527.34
2023-04-02T16:21:58.654Z,102487.94
2023-04-02T16:24:26.437Z,102512.72
2023-04-02T16:27:00.004Z,102473.47
2023-04-02T16:30:02.004Z,102494.84
2023-04-02T16:32:51.190Z,102468.91
2023-04-02T16:38:07.773Z,102508.94
2023-04-02T16:40:42.033Z,102499.78
2023-04-02T16:43:22.805Z,102507.69
2023-04-02T16:46:00.722Z,102522.75
2023-04-02T16:48:37.494Z,102530.19
2023-04-02T16:51:13.700Z,102434.53
2023-04-02T16:54:01.694Z,102496.75
2023-04-02T16:56:42.525Z,102430.38
2023-04-02T16:59:20.385Z,102476.91
2023-04-02T17:01:57.930Z,102416.44
2023-04-02T17:04:46.263Z,102431.31
2023-04-02T17:07:28.610Z,102373.88
2023-04-02T17:10:11.842Z,102421.06
2023-04-02T17:12:46.054Z,102378.69
2023-04-02T17:15:27.685Z,102377.84
2023-04-02T17:18:01.278Z,102333.59
2023-04-02T17:20:29.803Z,102287.25
2023-04-02T17:22:57.987Z,102362.34
2023-04-02T17:25:27.932Z,102262.53
2023-04-02T17:27:57.402Z,102263.22
2023-04-02T17:30:36.093Z,102313.38
2023-04-02T17:33:08.835Z,102259.53
2023-04-02T17:35:50.387Z,102217.19
2023-04-02T17:38:27.076Z,102242.16
2023-04-02T17:41:01.783Z,102175.25
2023-04-02T17:43:39.940Z,102085.50
2023-04-02T17:46:18.125Z,102109.91
2023-04-02T17:48:49.481Z,102202.25
2023-04-02T17:51:25.304Z,102145.72
2023-04-02T17:54:06.825Z,102130.59
2023-04-02T17:56:48.612Z,102139.97
2023-04-02T17:59:33.782Z,102154.25
2023-04-02T18:02:13.341Z,102158.13
2023-04-02T18:04:50.780Z,102142.75
2023-04-02T18:07:31.513Z,102118.47
2023-04-02T18:10:08.064Z,102047.53
2023-04-02T18:12:51.684Z,102075.53
2023-04-02T18:15:46.354Z,102078.84
2023-04-02T18:18:31.669Z,102061.44
2023-04-02T18:21:14.138Z,102035.81
2023-04-02T18:23:55.938Z,102080.75
2023-04-02T18:26:32.388Z,102044.41
2023-04-02T18:29:09.144Z,102063.16
2023-04-02T18:31:47.688Z,102061.13
2023-04-02T18:34:36.052Z,102061.13
2023-04-02T18:37:15.429Z,102060.72
2023-04-02T18:39:56.222Z,102045.16
2023-04-02T18:42:40.761Z,102076.13
2023-04-02T18:45:16.104Z,102078.38
2023-04-02T18:47:55.172Z,102077.31
2023-04-02T18:50:30.102Z,102069.88
2023-04-02T18:52:59.251Z,102057.72
2023-04-02T18:55:30.673Z,102051.03
2023-04-02T18:58:03.502Z,102070.00
2023-04-02T19:00:34.522Z,102098.31
2023-04-02T19:03:07.709Z,102121.41
2023-04-02T19:05:45.634Z,102109.50
2023-04-02T19:08:20.529Z,102106.13
2023-04-02T19:10:52.342Z,102118.66
2023-04-02T19:13:21.430Z,102101.38
2023-04-02T19:16:34.937Z,102103.41
2023-04-02T19:19:11.878Z,102097.09
2023-04-02T19:21:49.977Z,102113.13
2023-04-02T19:24:34.987Z,102103.56
2023-04-02T19:27:13.429Z,102094.94
2023-04-02T19:29:58.184Z,102100.78
2023-04-02T19:32:36.633Z,102103.50
2023-04-02T19:35:14.457Z,102101.22
2023-04-02T19:37:44.986Z,102095.94
2023-04-02T19:40:29.971Z,102097.59
2023-04-02T19:42:59.296Z,102092.66
2023-04-02T19:45:38.651Z,102067.16
2023-04-02T19:48:18.861Z,102075.06
2023-04-02T19:50:47.530Z,102069.56
2023-04-02T19:53:15.505Z,102079.38
2023-04-02T19:55:45.502Z,102063.78
2023-04-02T19:58:23.222Z,102084.63
2023-04-02T20:00:50.974Z,102100.47
2023-04-02T20:03:18.902Z,102092.19
2023-04-02T20:05:47.059Z,102098.25
2023-04-02T20:08:14.967Z,102097.88
2023-04-02T20:10:44.858Z,102087.50
2023-04-02T20:13:13.167Z,102106.75
2023-04-02T20:15:41.865Z,102104.16
2023-04-02T20:18:10.483Z,102100.16
2023-04-02T20:20:39.312Z,102093.59
2023-04-02T20:23:07.246Z,102120.94
2023-04-02T20:25:35.092Z,102123.28
2023-04-02T20:28:04.592Z,102122.72
2023-04-02T20:30:33.012Z,102124.38
2023-04-02T20:33:01.117Z,102136.75
2023-04-02T20:35:29.883Z,102144.44
2023-04-02T20:37:57.724Z,102148.78
2023-04-02T20:40:25.481Z,102156.56
2023-04-02T20:42:53.450Z,102164.56
2023-04-02T20:45:22.588Z,102165.41
2023-04-02T20:47:50.365Z,102160.31
2023-04-02T20:50:18.444Z,102157.13
2023-04-02T20:52:46.229Z,102144.06
2023-04-02T20:55:14.044Z,102156.53
2023-04-02T20:57:41.898Z,102163.47
2023-04-02T21:00:11.775Z,102170.22
2023-04-02T21:02:40.933Z,102172.31
2023-04-02T21:05:09.243Z,102160.06
2023-04-02T21:07:36.951Z,102161.66
2023-04-02T21:10:05.702Z,102191.00
2023-04-02T21:12:33.226Z,102197.94
2023-04-02T21:15:02.702Z,102190.97
2023-04-02T21:17:31.177Z,102205.69
2023-04-02T21:20:00.482Z,102197.22
2023-04-02T21:22:28.274Z,102216.03
2023-04-02T21:24:56.000Z,102217.19
2023-04-02T21:27:25.975Z,102220.25
2023-04-02T21:29:54.073Z,102206.09
2023-04-02T21:32:22.266Z,102203.97
2023-04-02T21:34:50.255Z,102218.59
2023-04-02T21:37:19.381Z,102208.94
2023-04-02T21:39:47.231Z,102221.41
2023-04-02T21:42:15.296Z,102223.84
2023-04-02T21:44:43.173Z,102210.47
2023-04-02T21:47:11.218Z,102215.50
2023-04-02T21:49:39.076Z,102198.94
2023-04-02T21:52:07.081Z,102205.34
2023-04-02T21:54:36.752Z,102195.63
2023-04-02T21:57:04.705Z,102209.81
2023-04-02T21:59:32.338Z,102208.63
2023-04-02T22:02:00.167Z,102212.84
2023-04-02T22:04:30.717Z,102208.72
2023-04-02T22:06:58.691Z,102210.69
2023-04-02T22:09:27.618Z,102176.22
2023-04-02T22:11:59.708Z,102217.19
2023-04-02T22:14:28.572Z,102222.66
2023-04-02T22:16:58.813Z,102232.09
2023-04-02T22:19:27.207Z,102224.94
2023-04-02T22:21:54.913Z,102224.31
2023-04-02T22:24:23.041Z,102211.38
2023-04-02T22:26:51.007Z,102227.34
2023-04-02T22:29:20.429Z,102225.81
2023-04-02T22:31:48.347Z,102226.31
2023-04-02T22:34:16.199Z,102220.84
2023-04-02T22:36:43.989Z,102222.41
2023-04-02T22:39:12.506Z,102230.28
2023-04-02T22:41:40.561Z,102234.31
2023-04-02T22:44:08.370Z,102241.97
2023-04-02T22:46:37.493Z,102239.78
2023-04-02T22:49:05.531Z,102214.25
2023-04-02T22:51:33.265Z,102245.81
2023-04-02T22:54:01.030Z,102253.97
2023-04-02T22:56:32.164Z,102244.44
2023-04-02T22:59:00.790Z,102248.78
2023-04-02T23:01:30.561Z,102250.88
2023-04-02T23:03:59.755Z,102249.22
2023-04-02T23:06:28.104Z,102232.97
2023-04-02T23:08:56.003Z,102240.72
2023-04-02T23:11:26.073Z,102225.50
2023-04-02T23:13:55.777Z,102233.28
2023-04-02T23:16:24.294Z,102216.63
2023-04-02T23:18:52.554Z,102225.22
2023-04-02T23:21:22.245Z,102222.94
2023-04-02T23:23:51.431Z,102219.66
2023-04-02T23:26:21.248Z,102219.41
2023-04-02T23:28:49.630Z,102219.41
2023-04-02T23:31:19.269Z,102226.84
2023-04-02T23:33:47.465Z,102229.53
2023-04-02T23:36:20.985Z,102225.00
2023-04-02T23:38:51.899Z,102227.16
2023-04-02T23:41:19.612Z,102217.63
2023-04-02T23:43:47.276Z,102211.22
2023-04-02T23:46:15.111Z,102200.81
2023-04-02T23:48:44.495Z,102205.97
2023-04-02T23:51:12.175Z,102209.47
2023-04-02T23:53:40.025Z,102204.41
2023-04-02T23:56:09.105Z,102203.88
2023-04-02T23:58:37.209Z,102207.38
